Time;durP1;ratioP1;P1;durP2;ratioP2;P2;SDS_P1;SDS_P2;PMS_P1;PMS_P2;Temp;Humidity;BMP_temperature;BMP_pressure;BME280_temperature;BME280_humidity;BME280_pressure;Samples;Min_cycle;Max_cycle;Signal;HPM_P1;HPM_P2
2021/09/05 00:01:05;;;;;;;7.03;5.10;;;13.50;99.90;;;;;;5030595;28;20468;-68
2021/09/05 00:03:31;;;;;;;7.87;5.10;;;13.40;99.90;;;;;;5030703;28;20492;-69
2021/09/05 00:06:00;;;;;;;6.53;5.70;;;13.40;99.90;;;;;;5030617;28;20460;-68
2021/09/05 00:08:26;;;;;;;5.73;4.93;;;13.40;99.90;;;;;;5030798;28;20484;-69
2021/09/05 00:10:53;;;;;;;7.93;4.50;;;13.40;99.90;;;;;;5030766;28;20525;-69
2021/09/05 00:13:20;;;;;;;7.33;5.07;;;13.40;99.90;;;;;;5030512;28;20980;-69
2021/09/05 00:15:47;;;;;;;6.60;5.30;;;13.40;99.90;;;;;;5030122;28;20467;-69
2021/09/05 00:18:13;;;;;;;6.90;5.30;;;13.30;99.90;;;;;;5030598;28;20511;-68
2021/09/05 00:20:40;;;;;;;5.23;4.43;;;13.40;99.90;;;;;;5030616;28;20482;-69
2021/09/05 00:23:09;;;;;;;10.40;5.87;;;13.30;99.90;;;;;;5030523;28;20484;-69
2021/09/05 00:25:36;;;;;;;6.33;5.40;;;13.30;99.90;;;;;;5030193;28;20491;-68
2021/09/05 00:28:03;;;;;;;6.03;5.43;;;13.30;99.90;;;;;;5030746;28;21007;-69
2021/09/05 00:30:30;;;;;;;7.00;5.13;;;13.30;99.90;;;;;;5030470;28;20461;-68
2021/09/05 00:32:57;;;;;;;6.30;5.00;;;13.30;99.90;;;;;;5030386;28;20460;-69
2021/09/05 00:35:24;;;;;;;6.80;5.50;;;13.30;99.90;;;;;;5030305;28;20460;-69
2021/09/05 00:37:50;;;;;;;7.27;5.27;;;13.30;99.90;;;;;;5030390;28;20848;-69
2021/09/05 00:40:18;;;;;;;8.03;6.23;;;13.20;99.90;;;;;;5030376;28;20467;-69
2021/09/05 00:42:45;;;;;;;5.70;4.90;;;13.20;99.90;;;;;;5030122;28;20836;-69
2021/09/05 00:45:12;;;;;;;5.80;5.30;;;13.20;99.90;;;;;;5029954;28;20967;-69
2021/09/05 00:47:39;;;;;;;6.77;5.13;;;13.20;99.90;;;;;;5030495;28;20480;-69
2021/09/05 00:50:06;;;;;;;5.40;4.87;;;13.20;99.90;;;;;;5029888;28;20464;-68
2021/09/05 00:52:33;;;;;;;6.93;5.60;;;13.20;99.90;;;;;;5030300;28;20456;-68
2021/09/05 00:55:00;;;;;;;7.87;6.03;;;13.10;99.90;;;;;;5029692;28;20952;-69
2021/09/05 00:57:28;;;;;;;7.60;5.57;;;13.10;99.90;;;;;;5030442;28;20491;-69
2021/09/05 00:59:55;;;;;;;9.17;5.80;;;13.10;99.90;;;;;;5030200;28;20498;-69
2021/09/05 01:02:22;;;;;;;7.40;5.63;;;13.10;99.90;;;;;;5029939;28;20849;-69
2021/09/05 01:04:49;;;;;;;5.90;5.30;;;13.10;99.90;;;;;;5029839;28;20456;-69
2021/09/05 01:07:15;;;;;;;5.50;5.00;;;13.00;99.90;;;;;;5029932;28;20506;-68
2021/09/05 01:09:42;;;;;;;14.60;5.80;;;13.00;99.90;;;;;;5030303;28;20471;-68
2021/09/05 01:12:11;;;;;;;8.23;5.90;;;13.00;99.90;;;;;;5029752;28;20825;-69
2021/09/05 01:14:39;;;;;;;6.20;4.47;;;13.10;99.90;;;;;;5029689;28;20463;-69
2021/09/05 01:17:05;;;;;;;6.27;5.30;;;13.10;99.90;;;;;;5030090;28;20484;-68
2021/09/05 01:19:32;;;;;;;9.00;5.37;;;13.00;99.90;;;;;;5029955;28;20464;-68
2021/09/05 01:21:59;;;;;;;6.43;5.37;;;13.00;99.90;;;;;;5029895;28;20488;-68
2021/09/05 01:24:25;;;;;;;6.53;5.60;;;13.00;99.90;;;;;;5029715;28;20460;-68
2021/09/05 01:26:53;;;;;;;8.87;5.50;;;13.00;99.90;;;;;;5030945;28;20512;-69
2021/09/05 01:29:21;;;;;;;10.20;7.80;;;13.00;99.90;;;;;;5033723;28;20869;-68
2021/09/05 01:31:50;;;;;;;8.70;7.13;;;13.00;99.90;;;;;;5033689;28;20468;-69
2021/09/05 01:34:19;;;;;;;7.73;6.93;;;13.00;99.90;;;;;;5033451;28;20959;-69
2021/09/05 01:36:48;;;;;;;7.30;6.47;;;13.00;99.90;;;;;;5033290;28;20483;-68
2021/09/05 01:39:16;;;;;;;6.63;5.90;;;12.90;99.90;;;;;;5033602;28;20468;-68
2021/09/05 01:41:44;;;;;;;7.80;5.67;;;12.90;99.90;;;;;;5033098;28;20467;-69
2021/09/05 01:44:13;;;;;;;7.33;5.60;;;12.90;99.90;;;;;;5033358;28;20465;-68
2021/09/05 01:46:41;;;;;;;5.60;5.10;;;12.90;99.90;;;;;;5033112;28;20487;-68
2021/09/05 01:49:08;;;;;;;7.23;5.27;;;12.90;99.90;;;;;;5032992;28;20474;-69
2021/09/05 01:51:35;;;;;;;5.90;5.30;;;12.80;99.90;;;;;;5033378;28;20467;-69
2021/09/05 01:54:03;;;;;;;6.87;4.60;;;12.80;99.90;;;;;;5032946;28;20456;-68
2021/09/05 01:56:31;;;;;;;6.80;5.40;;;12.80;99.90;;;;;;5033001;28;20464;-69
2021/09/05 01:58:58;;;;;;;7.40;5.70;;;12.80;99.90;;;;;;5033012;28;20472;-68
2021/09/05 02:01:26;;;;;;;6.93;5.77;;;12.80;99.90;;;;;;5033219;28;20521;-68
2021/09/05 02:03:54;;;;;;;7.23;5.67;;;12.70;99.90;;;;;;5032995;28;20491;-69
2021/09/05 02:06:21;;;;;;;7.17;5.60;;;12.70;99.90;;;;;;5032451;28;20467;-69
2021/09/05 02:08:48;;;;;;;6.10;5.50;;;12.70;99.90;;;;;;5033149;28;20464;-69
2021/09/05 02:11:15;;;;;;;7.20;6.20;;;12.70;99.90;;;;;;5032632;28;20468;-69
2021/09/05 02:13:42;;;;;;;8.00;6.00;;;12.70;99.90;;;;;;5032989;28;20452;-69
2021/09/05 02:16:09;;;;;;;6.03;5.40;;;12.70;99.90;;;;;;5032561;28;20456;-69
2021/09/05 02:18:36;;;;;;;6.30;5.57;;;12.70;99.90;;;;;;5032624;28;20579;-69
2021/09/05 02:21:04;;;;;;;10.23;6.17;;;12.60;99.90;;;;;;5032695;28;20471;-69
2021/09/05 02:23:31;;;;;;;6.57;5.50;;;12.60;99.90;;;;;;5032636;28;20495;-69
2021/09/05 02:25:57;;;;;;;9.83;5.53;;;12.60;99.90;;;;;;5032368;28;20464;-69
2021/09/05 02:28:24;;;;;;;8.90;5.70;;;12.60;99.90;;;;;;5032695;28;20546;-69
2021/09/05 02:30:51;;;;;;;5.83;5.27;;;12.60;99.90;;;;;;5032524;28;20471;-69
2021/09/05 02:33:18;;;;;;;6.07;5.47;;;12.60;99.90;;;;;;5032501;28;20838;-68
2021/09/05 02:35:45;;;;;;;7.63;5.60;;;12.60;99.90;;;;;;5032152;28;20874;-69
2021/09/05 02:38:13;;;;;;;7.10;6.10;;;12.60;99.90;;;;;;5032071;28;20477;-69
2021/09/05 02:40:40;;;;;;;9.17;5.80;;;12.60;99.90;;;;;;5032206;28;20467;-68
2021/09/05 02:43:07;;;;;;;7.30;6.60;;;12.60;99.90;;;;;;5032198;28;20848;-68
2021/09/05 02:45:34;;;;;;;7.10;5.70;;;12.50;99.90;;;;;;5032112;28;20468;-69
2021/09/05 02:50:40;;;;;;;6.40;5.80;;;12.50;99.90;;;;;;5087693;27;20543;-68
2021/09/05 02:53:06;;;;;;;6.17;5.57;;;12.50;99.90;;;;;;5087757;28;20963;-68
2021/09/05 02:55:33;;;;;;;7.80;5.80;;;12.40;99.90;;;;;;5087708;28;20963;-68
2021/09/05 02:58:00;;;;;;;6.20;5.60;;;12.40;99.90;;;;;;5088058;28;20832;-68
2021/09/05 03:00:27;;;;;;;6.53;5.83;;;12.40;99.90;;;;;;5088292;28;20461;-68
2021/09/05 03:02:53;;;;;;;10.87;6.27;;;12.30;99.90;;;;;;5087833;28;20971;-68
2021/09/05 03:05:20;;;;;;;6.57;5.80;;;12.30;99.90;;;;;;5087189;28;20461;-68
2021/09/05 03:07:48;;;;;;;6.47;5.80;;;12.40;99.90;;;;;;5087991;28;20482;-68
2021/09/05 03:10:15;;;;;;;6.83;5.67;;;12.30;99.90;;;;;;5087447;28;20481;-68
2021/09/05 03:12:42;;;;;;;5.50;5.00;;;12.30;99.90;;;;;;5087692;28;20462;-68
2021/09/05 03:15:09;;;;;;;6.00;5.40;;;12.30;99.90;;;;;;5087355;28;20458;-68
2021/09/05 03:17:36;;;;;;;6.23;5.63;;;12.30;99.90;;;;;;5087386;28;20485;-68
2021/09/05 03:20:03;;;;;;;7.17;6.10;;;12.30;99.90;;;;;;5087712;28;20458;-68
2021/09/05 03:22:30;;;;;;;8.20;5.57;;;12.20;99.90;;;;;;5087310;28;20872;-68
2021/09/05 03:24:58;;;;;;;6.53;5.87;;;12.30;99.90;;;;;;5087224;28;20458;-68
2021/09/05 03:27:24;;;;;;;8.50;5.40;;;12.20;99.90;;;;;;5087261;28;21012;-68
2021/09/05 03:29:51;;;;;;;9.77;5.60;;;12.20;99.90;;;;;;5087286;28;20543;-68
2021/09/05 03:32:18;;;;;;;6.13;5.53;;;12.20;99.90;;;;;;5087221;28;20469;-68
2021/09/05 03:34:45;;;;;;;7.23;6.20;;;12.20;99.90;;;;;;5086712;28;20463;-68
2021/09/05 03:37:11;;;;;;;5.50;5.00;;;12.20;99.90;;;;;;5087389;28;20686;-68
2021/09/05 03:39:38;;;;;;;6.83;5.67;;;12.20;99.90;;;;;;5087394;28;20465;-68
2021/09/05 03:42:06;;;;;;;6.05;5.38;;;12.20;99.90;;;;;;5087159;28;20828;-68
2021/09/05 03:44:33;;;;;;;9.23;6.07;;;12.20;99.90;;;;;;5086703;28;20616;-68
2021/09/05 03:46:59;;;;;;;7.47;5.50;;;12.20;99.90;;;;;;5086894;28;20524;-69
2021/09/05 03:49:28;;;;;;;10.70;6.27;;;12.10;99.90;;;;;;5086811;28;20493;-68
2021/09/05 03:51:55;;;;;;;6.90;5.57;;;12.10;99.90;;;;;;5086718;28;20461;-68
2021/09/05 03:54:21;;;;;;;6.20;5.60;;;12.10;99.90;;;;;;5086601;28;20207;-68
2021/09/05 03:56:48;;;;;;;7.10;5.53;;;12.10;99.90;;;;;;5086572;28;20485;-68
2021/09/05 03:59:16;;;;;;;6.97;5.10;;;12.00;99.90;;;;;;5086759;28;20493;-68
2021/09/05 04:01:43;;;;;;;5.70;4.97;;;12.00;99.90;;;;;;5074821;28;20976;-68
2021/09/05 04:04:10;;;;;;;6.13;5.53;;;12.00;99.90;;;;;;5073094;28;20840;-68
2021/09/05 04:06:37;;;;;;;6.40;5.80;;;12.00;99.90;;;;;;5072704;28;20486;-68
2021/09/05 04:09:09;;;;;;;7.13;6.00;;;12.00;99.90;;;;;;5073162;28;21005;-68
2021/09/05 04:11:36;;;;;;;5.87;5.27;;;12.00;99.90;;;;;;5072802;28;20462;-68
2021/09/05 04:14:03;;;;;;;5.97;5.37;;;12.00;99.90;;;;;;5073182;28;20462;-68
2021/09/05 04:16:31;;;;;;;5.77;5.17;;;12.00;99.90;;;;;;5072347;28;20969;-68
2021/09/05 04:18:58;;;;;;;17.43;6.60;;;11.90;99.90;;;;;;5073183;28;20466;-68
2021/09/05 04:21:26;;;;;;;5.83;5.20;;;11.90;99.90;;;;;;5072785;28;20494;-68
2021/09/05 04:23:53;;;;;;;12.20;5.83;;;11.90;99.90;;;;;;5072615;28;20461;-69
2021/09/05 04:26:19;;;;;;;7.03;5.57;;;11.90;99.90;;;;;;5072122;28;20469;-68
2021/09/05 04:28:46;;;;;;;6.13;5.20;;;11.90;99.90;;;;;;5072557;28;20207;-68
2021/09/05 04:31:13;;;;;;;6.78;6.18;;;11.90;99.90;;;;;;5072584;28;20520;-69
2021/09/05 04:33:41;;;;;;;8.07;5.70;;;11.90;99.90;;;;;;5072446;28;20675;-68
2021/09/05 04:36:07;;;;;;;5.88;5.32;;;11.90;99.90;;;;;;5071984;28;20466;-68
2021/09/05 04:38:34;;;;;;;6.57;5.57;;;11.90;99.90;;;;;;5072386;28;20559;-68
2021/09/05 04:41:01;;;;;;;5.82;4.97;;;11.90;99.90;;;;;;5072301;28;20455;-68
2021/09/05 04:43:28;;;;;;;6.40;5.60;;;11.90;99.90;;;;;;5072210;28;20209;-68
2021/09/05 04:45:56;;;;;;;6.10;5.50;;;11.90;99.90;;;;;;5072347;28;20204;-69
2021/09/05 04:48:23;;;;;;;7.33;5.30;;;11.90;99.90;;;;;;5072365;28;20306;-68
2021/09/05 04:50:51;;;;;;;7.87;6.40;;;11.90;99.90;;;;;;5072332;28;20490;-68
2021/09/05 04:53:18;;;;;;;6.20;5.57;;;12.00;99.90;;;;;;5072141;28;20489;-68
2021/09/05 04:55:45;;;;;;;6.10;5.50;;;11.90;99.90;;;;;;5072090;28;20469;-68
2021/09/05 04:58:11;;;;;;;6.70;5.67;;;11.90;99.90;;;;;;5071974;28;20478;-68
2021/09/05 05:00:38;;;;;;;6.50;5.10;;;11.90;99.90;;;;;;5072143;28;20466;-68
2021/09/05 05:03:05;;;;;;;6.07;5.57;;;11.90;99.90;;;;;;5071958;28;20466;-68
2021/09/05 05:05:31;;;;;;;7.70;5.83;;;11.90;99.90;;;;;;5071321;28;20465;-68
2021/09/05 05:07:59;;;;;;;6.13;5.53;;;11.90;99.90;;;;;;5072204;28;20482;-68
2021/09/05 05:10:26;;;;;;;8.30;5.50;;;11.90;99.90;;;;;;5071671;28;20479;-68
2021/09/05 05:12:53;;;;;;;7.30;6.10;;;11.90;99.90;;;;;;5071031;28;20458;-68
2021/09/05 05:15:20;;;;;;;6.10;5.50;;;11.90;99.90;;;;;;5071460;28;20512;-68
2021/09/05 05:17:46;;;;;;;8.17;5.20;;;11.90;99.90;;;;;;5072140;28;20475;-69
2021/09/05 05:20:13;;;;;;;5.30;4.80;;;11.90;99.90;;;;;;5071836;28;20881;-68
2021/09/05 05:22:40;;;;;;;5.90;5.27;;;11.90;99.90;;;;;;5071549;28;20920;-68
2021/09/05 05:25:10;;;;;;;6.73;5.70;;;11.90;99.90;;;;;;5071285;28;20976;-69
2021/09/05 05:27:37;;;;;;;5.80;5.20;;;12.00;99.90;;;;;;5071362;28;20478;-68
2021/09/05 05:30:04;;;;;;;6.30;5.70;;;12.00;99.90;;;;;;5070867;28;20478;-69
2021/09/05 05:32:31;;;;;;;6.87;5.67;;;12.00;99.90;;;;;;5071340;28;20459;-68
2021/09/05 05:34:58;;;;;;;6.83;5.93;;;12.00;99.90;;;;;;5071069;28;20469;-68
2021/09/05 05:37:25;;;;;;;7.70;6.00;;;12.00;99.90;;;;;;5071535;28;20501;-68
2021/09/05 05:39:52;;;;;;;6.93;6.23;;;12.00;99.90;;;;;;5071385;28;20466;-68
2021/09/05 05:42:20;;;;;;;6.23;5.63;;;12.00;99.90;;;;;;5071340;28;20462;-68
2021/09/05 05:44:47;;;;;;;6.20;5.70;;;12.10;99.90;;;;;;5071038;28;20485;-68
2021/09/05 05:47:13;;;;;;;7.00;6.03;;;12.10;99.90;;;;;;5071112;28;20235;-68
2021/09/05 05:49:43;;;;;;;7.27;6.03;;;12.10;99.90;;;;;;5070957;28;20540;-68
2021/09/05 05:52:10;;;;;;;6.63;5.93;;;12.20;99.90;;;;;;5071059;28;20954;-68
2021/09/05 05:54:37;;;;;;;7.63;6.17;;;12.20;99.90;;;;;;5070969;28;20973;-68
2021/09/05 05:57:04;;;;;;;6.00;5.40;;;12.30;99.90;;;;;;5071094;28;20887;-69
2021/09/05 05:59:32;;;;;;;7.07;6.03;;;12.30;99.90;;;;;;5070881;28;20451;-68
2021/09/05 06:01:59;;;;;;;6.50;5.80;;;12.40;99.90;;;;;;5071175;28;20762;-68
2021/09/05 06:04:26;;;;;;;7.37;5.77;;;12.40;99.90;;;;;;5070611;28;20512;-67
2021/09/05 06:06:53;;;;;;;6.17;5.47;;;12.50;99.90;;;;;;5070594;28;20482;-67
2021/09/05 06:09:20;;;;;;;6.27;5.57;;;12.60;99.90;;;;;;5070883;28;20494;-67
2021/09/05 06:11:46;;;;;;;6.43;5.33;;;12.60;99.90;;;;;;5070503;28;20969;-67
2021/09/05 06:14:13;;;;;;;8.97;6.13;;;12.70;99.90;;;;;;5070948;28;20462;-67
2021/09/05 06:16:41;;;;;;;10.93;5.83;;;12.70;99.90;;;;;;5070121;28;20494;-67
2021/09/05 06:19:08;;;;;;;7.07;6.37;;;12.80;99.90;;;;;;5070820;28;20458;-67
2021/09/05 06:21:35;;;;;;;7.10;6.00;;;12.90;99.90;;;;;;5070483;28;20458;-67
2021/09/05 06:24:01;;;;;;;7.33;5.70;;;13.00;99.90;;;;;;5070396;28;20969;-67
2021/09/05 06:26:28;;;;;;;7.60;6.13;;;13.00;99.90;;;;;;5070241;28;20820;-67
2021/09/05 06:28:55;;;;;;;7.73;6.93;;;13.10;99.90;;;;;;5070411;28;20468;-67
2021/09/05 06:31:22;;;;;;;7.20;6.37;;;13.30;99.90;;;;;;5070489;28;20486;-67
2021/09/05 06:33:50;;;;;;;8.33;7.00;;;13.40;99.90;;;;;;5070151;28;20465;-67
2021/09/05 06:36:17;;;;;;;9.37;8.40;;;13.50;99.90;;;;;;5068022;28;20976;-67
2021/09/05 06:38:44;;;;;;;8.80;7.50;;;13.60;99.90;;;;;;5070303;28;20488;-67
2021/09/05 06:41:10;;;;;;;11.83;7.80;;;13.70;99.90;;;;;;5070094;28;20458;-67
2021/09/05 06:43:37;;;;;;;9.17;8.17;;;13.80;99.90;;;;;;5069958;28;20533;-67
2021/09/05 06:46:04;;;;;;;9.07;7.77;;;13.90;99.90;;;;;;5069833;28;20828;-67
2021/09/05 06:48:32;;;;;;;8.47;7.67;;;14.10;99.90;;;;;;5069593;28;20506;-67
2021/09/05 06:51:00;;;;;;;9.13;8.17;;;14.20;99.90;;;;;;5070194;28;20482;-67
2021/09/05 06:53:27;;;;;;;8.63;7.40;;;14.40;99.90;;;;;;5069395;28;20904;-67
2021/09/05 06:55:54;;;;;;;8.63;7.73;;;14.50;99.90;;;;;;5069712;28;20458;-67
2021/09/05 06:58:20;;;;;;;8.43;7.60;;;14.70;99.90;;;;;;5063359;28;20482;-67
2021/09/05 07:00:47;;;;;;;8.33;7.53;;;14.80;99.90;;;;;;5068359;28;20462;-67
2021/09/05 07:03:19;;;;;;;8.63;7.53;;;14.90;99.90;;;;;;5068660;28;20458;-67
2021/09/05 07:05:49;;;;;;;8.40;7.43;;;15.10;99.90;;;;;;5069305;28;20458;-68
2021/09/05 07:08:18;;;;;;;10.90;8.47;;;15.30;99.90;;;;;;5069733;28;20486;-68
2021/09/05 07:10:45;;;;;;;9.87;8.87;;;15.50;99.90;;;;;;5069016;28;21000;-68
2021/09/05 07:13:12;;;;;;;9.63;8.23;;;15.70;99.90;;;;;;5069763;28;20809;-68
2021/09/05 07:15:39;;;;;;;7.40;6.60;;;15.90;99.90;;;;;;5065780;28;20494;-68
2021/09/05 07:18:07;;;;;;;8.87;7.40;;;16.00;99.90;;;;;;5067297;28;20841;-68
2021/09/05 07:20:34;;;;;;;7.53;6.60;;;16.10;99.90;;;;;;5067867;28;20473;-68
2021/09/05 07:23:01;;;;;;;7.07;6.37;;;16.20;99.90;;;;;;5069316;28;20450;-69
2021/09/05 07:25:30;;;;;;;8.30;7.50;;;16.40;99.90;;;;;;5068018;28;20576;-67
2021/09/05 07:27:57;;;;;;;7.50;6.80;;;16.50;99.90;;;;;;5069130;28;20475;-67
2021/09/05 07:30:27;;;;;;;9.40;7.10;;;16.70;99.90;;;;;;5068719;28;20479;-68
2021/09/05 07:32:54;;;;;;;10.37;7.47;;;16.90;99.90;;;;;;5068650;28;20561;-68
2021/09/05 07:35:21;;;;;;;7.33;6.53;;;17.00;99.90;;;;;;5068762;28;20805;-68
2021/09/05 07:37:52;;;;;;;9.00;7.47;;;17.10;99.90;;;;;;5072558;28;20478;-67
2021/09/05 07:40:21;;;;;;;9.60;7.40;;;17.20;99.90;;;;;;5070208;28;20523;-67
2021/09/05 07:43:00;;;;;;;8.00;7.20;;;17.40;99.90;;;;;;5074531;28;20549;-69
2021/09/05 07:45:34;;;;;;;7.13;6.43;;;17.50;99.90;;;;;;5083383;28;20844;-67
2021/09/05 07:48:01;;;;;;;6.70;5.77;;;17.60;99.90;;;;;;5070615;28;20477;-68
2021/09/05 07:50:32;;;;;;;7.70;6.90;;;17.80;99.90;;;;;;5079274;28;20562;-67
2021/09/05 07:53:06;;;;;;;6.93;6.23;;;17.90;99.90;;;;;;5087975;28;20505;-67
2021/09/05 07:55:36;;;;;;;6.87;6.17;;;18.00;99.90;;;;;;5079636;28;20817;-68
2021/09/05 07:58:06;;;;;;;8.03;7.20;;;18.10;99.90;;;;;;5082755;28;20509;-68
2021/09/05 08:00:32;;;;;;;6.27;5.67;;;18.20;99.90;;;;;;5070059;28;20454;-68
2021/09/05 08:02:59;;;;;;;7.57;6.87;;;18.40;99.90;;;;;;5089311;28;20872;-67
2021/09/05 08:05:26;;;;;;;8.97;7.37;;;18.50;99.90;;;;;;5091297;28;21080;-67
2021/09/05 08:07:52;;;;;;;7.70;6.90;;;18.60;99.90;;;;;;5072499;28;20478;-67
2021/09/05 08:10:19;;;;;;;8.33;7.40;;;18.70;99.90;;;;;;5071494;28;20482;-68
2021/09/05 08:12:46;;;;;;;9.03;8.13;;;18.90;99.90;;;;;;5071059;28;20516;-68
2021/09/05 08:15:14;;;;;;;8.50;7.47;;;19.10;99.90;;;;;;5071288;28;20663;-67
2021/09/05 08:17:41;;;;;;;8.70;7.70;;;19.20;99.90;;;;;;5071256;28;20557;-67
2021/09/05 08:20:09;;;;;;;8.70;6.93;;;19.30;99.90;;;;;;5071522;28;20454;-67
2021/09/05 08:22:35;;;;;;;7.37;6.60;;;19.40;99.90;;;;;;5071013;28;20459;-68
2021/09/05 08:25:02;;;;;;;8.10;7.30;;;19.50;99.90;;;;;;5086183;28;20461;-67
2021/09/05 08:27:29;;;;;;;7.07;6.37;;;19.60;99.90;;;;;;5090232;28;20480;-67
2021/09/05 08:29:57;;;;;;;6.60;5.90;;;19.70;99.90;;;;;;5090939;28;20461;-68
2021/09/05 08:32:25;;;;;;;9.00;7.13;;;19.80;99.90;;;;;;5089839;28;20549;-68
2021/09/05 08:34:52;;;;;;;7.10;6.40;;;19.90;99.90;;;;;;5090258;28;20512;-67
2021/09/05 08:37:18;;;;;;;7.00;6.30;;;20.00;99.90;;;;;;5090156;28;20477;-68
2021/09/05 08:39:45;;;;;;;6.40;5.80;;;20.10;99.90;;;;;;5082562;28;20458;-68
2021/09/05 08:42:12;;;;;;;7.70;6.20;;;20.30;99.90;;;;;;5069951;28;20934;-68
2021/09/05 08:44:39;;;;;;;8.17;5.57;;;20.40;99.90;;;;;;5069741;28;20462;-68
2021/09/05 08:47:08;;;;;;;6.03;5.43;;;20.50;99.90;;;;;;5073742;28;20988;-67
2021/09/05 08:49:38;;;;;;;6.83;5.90;;;20.60;99.90;;;;;;5151006;22;21412;-68
2021/09/05 08:52:06;;;;;;;7.07;5.90;;;20.80;99.90;;;;;;5044159;28;20561;-68
2021/09/05 08:54:33;;;;;;;7.47;6.57;;;20.90;99.90;;;;;;5049414;28;20451;-68
2021/09/05 08:57:01;;;;;;;8.00;7.20;;;21.10;99.90;;;;;;5045730;28;20947;-68
2021/09/05 08:59:28;;;;;;;6.73;6.10;;;21.10;99.90;;;;;;5039562;28;20562;-68
2021/09/05 09:01:56;;;;;;;6.90;6.30;;;21.20;99.90;;;;;;5038496;28;20457;-68
2021/09/05 09:04:23;;;;;;;5.70;5.03;;;21.20;99.90;;;;;;5037615;28;20506;-68
2021/09/05 09:06:51;;;;;;;6.40;5.67;;;21.20;99.90;;;;;;5034988;28;20507;-68
2021/09/05 09:09:19;;;;;;;6.23;5.73;;;21.40;99.90;;;;;;5046751;28;20824;-68
2021/09/05 09:11:50;;;;;;;5.80;5.30;;;21.50;99.90;;;;;;5028835;28;20546;-68
2021/09/05 09:14:18;;;;;;;7.27;6.03;;;21.60;99.90;;;;;;5042985;28;20455;-68
2021/09/05 09:16:45;;;;;;;6.30;5.70;;;21.80;99.90;;;;;;5047462;28;20487;-68
2021/09/05 09:19:26;;;;;;;6.33;5.73;;;21.90;99.90;;;;;;5043480;28;20829;-68
2021/09/05 09:21:55;;;;;;;5.80;5.30;;;22.00;99.90;;;;;;5041304;28;20458;-68
2021/09/05 09:24:23;;;;;;;8.20;5.40;;;22.10;99.90;;;;;;5029092;28;20453;-68
2021/09/05 09:26:57;;;;;;;6.43;5.83;;;22.20;99.90;;;;;;5028982;28;20826;-68
2021/09/05 09:29:24;;;;;;;7.20;6.30;;;22.30;99.90;;;;;;5029452;28;20463;-68
2021/09/05 09:31:58;;;;;;;7.47;5.60;;;22.30;99.90;;;;;;5033220;28;20683;-67
2021/09/05 09:34:25;;;;;;;5.20;4.70;;;22.40;99.90;;;;;;5037610;28;20458;-68
2021/09/05 09:36:58;;;;;;;5.20;4.70;;;22.50;99.90;;;;;;5038312;28;20502;-68
2021/09/05 09:39:27;;;;;;;6.70;5.63;;;22.70;99.90;;;;;;5037415;28;20463;-68
2021/09/05 09:41:54;;;;;;;6.03;5.43;;;22.70;99.90;;;;;;5033078;28;20456;-68
2021/09/05 09:44:27;;;;;;;8.27;5.53;;;22.90;99.90;;;;;;5028913;28;20488;-68
2021/09/05 09:46:53;;;;;;;6.10;5.40;;;23.00;99.90;;;;;;5027127;28;20491;-67
2021/09/05 09:49:20;;;;;;;5.43;4.93;;;23.10;99.90;;;;;;5028034;28;20460;-67
2021/09/05 09:51:47;;;;;;;6.70;5.97;;;23.20;99.90;;;;;;5028840;28;21007;-67
2021/09/05 09:54:15;;;;;;;6.50;5.80;;;23.30;99.90;;;;;;5029082;28;20465;-68
2021/09/05 09:56:42;;;;;;;5.90;5.30;;;23.40;99.90;;;;;;5028342;28;20512;-67
2021/09/05 09:59:09;;;;;;;5.27;4.77;;;23.60;99.90;;;;;;5028611;28;20472;-68
2021/09/05 10:01:36;;;;;;;5.73;4.87;;;23.60;99.90;;;;;;5028539;28;20974;-67
2021/09/05 10:04:05;;;;;;;5.63;5.00;;;23.70;99.90;;;;;;5028639;28;20460;-68
2021/09/05 10:06:33;;;;;;;6.33;5.37;;;23.90;99.90;;;;;;5028040;28;20448;-68
2021/09/05 10:09:02;;;;;;;5.70;5.00;;;24.00;99.90;;;;;;5048537;28;20963;-68
2021/09/05 10:11:30;;;;;;;5.13;4.57;;;24.00;99.90;;;;;;5047552;28;20479;-68
2021/09/05 10:13:58;;;;;;;6.10;4.70;;;24.00;99.90;;;;;;5041728;28;20484;-68
2021/09/05 10:16:25;;;;;;;6.13;4.53;;;24.10;99.90;;;;;;5034099;28;20459;-68
2021/09/05 10:18:55;;;;;;;5.53;4.93;;;24.20;99.90;;;;;;5028885;28;20457;-68
2021/09/05 10:21:23;;;;;;;6.00;4.90;;;24.30;99.90;;;;;;5028588;28;20460;-68
2021/09/05 10:23:52;;;;;;;5.77;5.27;;;24.40;99.90;;;;;;5028334;28;20460;-68
2021/09/05 10:26:20;;;;;;;5.60;4.70;;;24.40;99.90;;;;;;5028435;28;20895;-68
2021/09/05 10:28:49;;;;;;;5.63;4.93;;;24.50;99.90;;;;;;5028382;28;20844;-68
2021/09/05 10:31:24;;;;;;;5.13;4.43;;;24.60;99.90;;;;;;5027994;28;20483;-68
2021/09/05 10:33:50;;;;;;;4.73;4.33;;;24.70;99.90;;;;;;5041661;28;20451;-68
2021/09/05 10:36:19;;;;;;;5.43;4.93;;;24.80;99.90;;;;;;5047855;28;20483;-68
2021/09/05 10:38:47;;;;;;;4.80;4.37;;;24.70;99.90;;;;;;5048202;28;20555;-68
2021/09/05 10:41:16;;;;;;;5.03;4.60;;;24.70;99.90;;;;;;5028883;28;20543;-67
2021/09/05 10:44:17;;;;;;;4.80;4.30;;;24.70;99.90;;;;;;5028156;28;20464;-67
2021/09/05 10:46:47;;;;;;;5.60;5.00;;;24.60;99.90;;;;;;5028677;28;20489;-68
2021/09/05 10:49:14;;;;;;;5.67;5.17;;;24.70;99.90;;;;;;5045951;28;20463;-67
2021/09/05 10:51:46;;;;;;;4.60;4.20;;;24.80;99.90;;;;;;5049857;28;20487;-67
2021/09/05 10:54:22;;;;;;;5.37;4.67;;;24.90;99.90;;;;;;5050055;28;20548;-67
2021/09/05 10:56:49;;;;;;;5.97;5.33;;;25.00;99.90;;;;;;5049097;28;21155;-68
2021/09/05 10:59:19;;;;;;;4.67;4.20;;;24.90;99.90;;;;;;5049343;28;20475;-67
2021/09/05 11:01:58;;;;;;;5.80;4.93;;;25.00;99.90;;;;;;5049963;28;20463;-67
2021/09/05 11:04:25;;;;;;;4.60;4.20;;;25.10;99.90;;;;;;5049986;28;20459;-67
2021/09/05 11:06:53;;;;;;;4.50;4.10;;;25.20;99.90;;;;;;5046561;28;21103;-68
2021/09/05 11:09:48;;;;;;;4.93;4.03;;;25.40;99.90;;;;;;5050032;28;20470;-70
2021/09/05 11:12:36;;;;;;;4.40;4.00;;;25.40;99.90;;;;;;5029047;28;20487;-68
2021/09/05 11:15:25;;;;;;;4.03;3.73;;;25.40;99.90;;;;;;5034582;28;20469;-69
2021/09/05 11:17:56;;;;;;;4.20;3.80;;;25.50;99.90;;;;;;5032044;28;20538;-70
2021/09/05 11:20:24;;;;;;;5.00;4.37;;;25.60;99.90;;;;;;5032534;28;22437;-70
2021/09/05 11:22:50;;;;;;;4.53;4.13;;;25.60;99.90;;;;;;5032073;28;20452;-70
2021/09/05 11:25:21;;;;;;;5.00;4.60;;;25.60;99.90;;;;;;5032921;28;20452;-70
2021/09/05 11:27:52;;;;;;;4.93;4.43;;;25.70;99.90;;;;;;5051311;28;20515;-70
2021/09/05 11:30:21;;;;;;;6.83;4.47;;;25.80;99.90;;;;;;5032428;28;20455;-70
2021/09/05 11:32:48;;;;;;;4.43;4.00;;;25.80;99.90;;;;;;5032609;28;21035;-67
2021/09/05 11:35:15;;;;;;;4.80;4.30;;;25.80;99.90;;;;;;5050892;28;20881;-70
2021/09/05 11:37:44;;;;;;;4.70;4.20;;;25.80;99.90;;;;;;5052021;28;20490;-69
2021/09/05 11:40:12;;;;;;;4.27;3.87;;;25.80;99.90;;;;;;5053299;28;20457;-69
2021/09/05 11:42:45;;;;;;;5.00;3.97;;;25.90;99.90;;;;;;5052917;28;20462;-70
2021/09/05 11:45:13;;;;;;;4.40;4.00;;;26.00;99.90;;;;;;5052923;28;20471;-69
2021/09/05 11:47:42;;;;;;;5.20;4.40;;;26.00;99.90;;;;;;5052594;28;20581;-70
2021/09/05 11:50:11;;;;;;;4.87;4.47;;;26.10;99.90;;;;;;5053419;28;20510;-69
2021/09/05 11:52:40;;;;;;;4.50;4.10;;;26.10;99.90;;;;;;5052613;28;20483;-69
2021/09/05 11:55:09;;;;;;;4.70;4.30;;;26.10;99.90;;;;;;5053490;28;20468;-69
2021/09/05 11:57:37;;;;;;;5.67;4.97;;;26.10;99.90;;;;;;5051946;28;20487;-69
2021/09/05 12:00:07;;;;;;;5.23;4.73;;;26.00;99.90;;;;;;5053401;28;20765;-70
2021/09/05 12:02:37;;;;;;;4.00;3.70;;;26.10;99.90;;;;;;5052774;28;20538;-70
2021/09/05 12:05:07;;;;;;;4.47;3.90;;;26.20;99.90;;;;;;5052751;28;20835;-69
2021/09/05 12:07:38;;;;;;;4.80;4.30;;;26.30;99.90;;;;;;5052420;28;20486;-69
2021/09/05 12:10:08;;;;;;;5.30;4.50;;;26.40;99.90;;;;;;5053306;28;20463;-68
2021/09/05 12:12:35;;;;;;;4.70;4.30;;;26.50;99.90;;;;;;5052362;28;20494;-70
2021/09/05 12:15:18;;;;;;;5.50;4.67;;;26.60;99.90;;;;;;5053036;28;20463;-70
2021/09/05 12:17:46;;;;;;;4.07;3.73;;;26.70;99.90;;;;;;5051591;28;20487;-67
2021/09/05 12:20:15;;;;;;;4.77;4.27;;;26.80;99.90;;;;;;5052394;28;20456;-70
2021/09/05 12:22:45;;;;;;;4.80;4.30;;;26.90;99.90;;;;;;5051356;28;20901;-70
2021/09/05 12:25:14;;;;;;;3.97;3.67;;;27.00;99.90;;;;;;5052482;28;20459;-70
2021/09/05 12:27:52;;;;;;;4.47;4.07;;;27.00;99.90;;;;;;5050142;28;20484;-68
2021/09/05 12:30:24;;;;;;;4.80;4.40;;;26.80;99.90;;;;;;5051574;28;20525;-69
2021/09/05 12:33:04;;;;;;;4.83;4.07;;;26.50;99.90;;;;;;5051063;28;20483;-69
2021/09/05 12:35:33;;;;;;;4.47;4.07;;;26.10;99.90;;;;;;5050881;28;20470;-69
2021/09/05 12:38:05;;;;;;;4.40;3.87;;;25.90;99.90;;;;;;5051653;28;20483;-70
2021/09/05 12:40:35;;;;;;;4.40;4.03;;;25.80;99.90;;;;;;5051200;28;20460;-69
2021/09/05 12:43:02;;;;;;;5.60;4.90;;;25.80;99.90;;;;;;5051254;28;20455;-69
2021/09/05 12:45:29;;;;;;;4.30;3.90;;;25.70;99.90;;;;;;5051050;28;20468;-69
2021/09/05 12:48:11;;;;;;;4.63;4.10;;;25.60;99.90;;;;;;5051193;28;20483;-69
2021/09/05 12:50:39;;;;;;;4.67;4.20;;;25.50;99.90;;;;;;5044749;28;20834;-69
2021/09/05 12:53:11;;;;;;;5.13;4.50;;;25.50;99.90;;;;;;5034063;28;20485;-69